Time;durP1;ratioP1;P1;durP2;ratioP2;P2;SDS_P1;SDS_P2;PMS_P1;PMS_P2;Temp;Humidity;BMP_temperature;BMP_pressure;BME280_temperature;BME280_humidity;BME280_pressure;Samples;Min_cycle;Max_cycle;Signal;HPM_P1;HPM_P2
2022/02/23 00:01:17;;;;;;;10.87;4.30;;;10.10;99.90;;;;;;5052655;28;20523;-79
2022/02/23 00:03:43;;;;;;;8.00;3.27;;;10.00;99.90;;;;;;5052451;28;20417;-68
2022/02/23 00:06:09;;;;;;;10.33;4.37;;;10.10;99.90;;;;;;5053676;28;20725;-68
2022/02/23 00:08:35;;;;;;;7.87;4.07;;;10.00;99.90;;;;;;5052137;28;20194;-68
2022/02/23 00:11:01;;;;;;;9.80;4.00;;;10.00;99.90;;;;;;5052391;28;20239;-69
2022/02/23 00:13:28;;;;;;;5.40;4.20;;;9.90;99.90;;;;;;5052401;28;20429;-68
2022/02/23 00:15:57;;;;;;;12.33;4.47;;;10.00;99.90;;;;;;5053220;28;20178;-68
2022/02/23 00:18:22;;;;;;;6.80;3.87;;;10.00;99.90;;;;;;5052474;28;20863;-70
2022/02/23 00:20:49;;;;;;;4.90;3.93;;;10.00;99.90;;;;;;5068711;28;20468;-67
2022/02/23 00:23:15;;;;;;;7.60;3.90;;;10.00;99.90;;;;;;5053021;28;20178;-68
2022/02/23 00:25:41;;;;;;;5.40;3.90;;;10.00;99.90;;;;;;5051590;28;20453;-68
2022/02/23 00:28:07;;;;;;;11.40;4.40;;;10.10;99.90;;;;;;5053105;28;20201;-68
2022/02/23 00:30:32;;;;;;;8.83;4.23;;;10.10;99.90;;;;;;5052525;28;20470;-68
2022/02/23 00:32:59;;;;;;;8.10;4.10;;;10.10;99.90;;;;;;5051994;28;20423;-68
2022/02/23 00:35:24;;;;;;;5.10;3.93;;;10.10;99.90;;;;;;5051924;28;20228;-69
2022/02/23 00:37:50;;;;;;;7.60;4.30;;;10.00;99.90;;;;;;5052347;28;20426;-68
2022/02/23 00:40:16;;;;;;;11.43;4.37;;;9.90;99.90;;;;;;5052740;28;20177;-68
2022/02/23 00:42:41;;;;;;;4.50;4.07;;;9.80;99.90;;;;;;5050113;28;20676;-68
2022/02/23 00:45:08;;;;;;;4.60;4.07;;;9.80;99.90;;;;;;5053042;28;20169;-68
2022/02/23 00:47:34;;;;;;;7.07;3.70;;;9.80;99.90;;;;;;5052123;28;20214;-68
2022/02/23 00:49:59;;;;;;;4.70;3.67;;;9.80;99.90;;;;;;5052913;28;20910;-68
2022/02/23 00:52:26;;;;;;;7.33;4.60;;;9.80;99.90;;;;;;5050088;28;20186;-69
2022/02/23 00:54:51;;;;;;;4.90;4.00;;;9.70;99.90;;;;;;5051328;28;20182;-67
2022/02/23 00:57:17;;;;;;;8.33;4.27;;;9.70;99.90;;;;;;5050800;28;20435;-68
2022/02/23 00:59:44;;;;;;;7.90;4.73;;;9.80;99.90;;;;;;5051748;28;20615;-68
2022/02/23 01:02:10;;;;;;;10.77;4.60;;;9.80;99.90;;;;;;5052402;28;20187;-68
2022/02/23 01:04:36;;;;;;;6.80;3.80;;;9.80;99.90;;;;;;5050594;28;20443;-68
2022/02/23 01:07:03;;;;;;;11.30;3.90;;;9.70;99.90;;;;;;5052288;28;20960;-68
2022/02/23 01:09:29;;;;;;;8.73;4.00;;;9.70;99.90;;;;;;5050394;28;20210;-68
2022/02/23 01:11:54;;;;;;;10.40;4.13;;;9.70;99.90;;;;;;5052499;28;20482;-68
2022/02/23 01:14:20;;;;;;;13.77;4.90;;;9.70;99.90;;;;;;5051134;28;20177;-81
2022/02/23 01:16:46;;;;;;;8.27;3.90;;;9.70;99.90;;;;;;5052092;28;20186;-69
2022/02/23 01:19:12;;;;;;;9.00;4.37;;;9.70;99.90;;;;;;5052242;28;20193;-68
2022/02/23 01:21:37;;;;;;;6.87;4.30;;;9.70;99.90;;;;;;5051481;28;20213;-68
2022/02/23 01:24:04;;;;;;;9.87;4.10;;;9.80;99.90;;;;;;5052271;28;20428;-68
2022/02/23 01:26:29;;;;;;;7.60;4.67;;;9.70;99.90;;;;;;5049928;28;20173;-68
2022/02/23 01:28:55;;;;;;;12.47;5.10;;;9.70;99.90;;;;;;5051857;28;20557;-68
2022/02/23 01:31:21;;;;;;;7.20;4.47;;;9.70;99.90;;;;;;5034183;28;20509;-80
2022/02/23 01:33:47;;;;;;;8.33;4.30;;;9.70;99.90;;;;;;5051725;28;20547;-68
2022/02/23 01:36:13;;;;;;;7.43;4.90;;;9.60;99.90;;;;;;5051724;28;20807;-69
2022/02/23 01:38:39;;;;;;;5.30;4.73;;;9.50;99.90;;;;;;5051894;28;20221;-68
2022/02/23 01:41:06;;;;;;;5.43;3.83;;;9.50;99.90;;;;;;5051327;28;20614;-68
2022/02/23 01:43:31;;;;;;;8.00;4.17;;;9.40;99.90;;;;;;5049829;28;20537;-68
2022/02/23 01:45:57;;;;;;;7.23;4.13;;;9.40;99.90;;;;;;5050969;28;20443;-68
2022/02/23 01:48:23;;;;;;;5.93;4.17;;;9.40;99.90;;;;;;5050802;28;20204;-76
2022/02/23 01:50:49;;;;;;;11.00;4.57;;;9.40;99.90;;;;;;5050154;28;20178;-68
2022/02/23 01:53:17;;;;;;;10.37;4.30;;;9.40;99.90;;;;;;5050785;28;20424;-68
2022/02/23 01:55:43;;;;;;;10.93;4.60;;;9.40;99.90;;;;;;5049989;28;20503;-68
2022/02/23 01:58:09;;;;;;;7.57;4.20;;;9.50;99.90;;;;;;5051461;28;20419;-69
2022/02/23 02:00:35;;;;;;;9.80;4.80;;;9.30;99.90;;;;;;5019499;28;20924;-69
2022/02/23 02:03:01;;;;;;;8.30;5.20;;;9.30;99.90;;;;;;5054351;28;20435;-68
2022/02/23 02:05:27;;;;;;;8.17;4.30;;;9.20;99.90;;;;;;5061018;28;20427;-69
2022/02/23 02:07:53;;;;;;;14.20;4.43;;;9.20;99.90;;;;;;5053390;28;20448;-69
2022/02/23 02:10:18;;;;;;;11.87;4.90;;;9.30;99.90;;;;;;5053102;28;20182;-68
2022/02/23 02:12:44;;;;;;;15.50;4.33;;;9.30;99.90;;;;;;5053908;28;20182;-68
2022/02/23 02:15:10;;;;;;;8.63;4.17;;;9.30;99.90;;;;;;5054431;28;20185;-70
2022/02/23 02:17:36;;;;;;;5.50;3.80;;;9.30;99.90;;;;;;5053465;28;20181;-68
2022/02/23 02:20:05;;;;;;;7.73;3.87;;;9.30;99.90;;;;;;5054104;28;20483;-69
2022/02/23 02:22:31;;;;;;;7.10;4.53;;;9.30;99.90;;;;;;5053357;28;20408;-68
2022/02/23 02:24:59;;;;;;;7.70;4.00;;;9.30;99.90;;;;;;5054232;28;20460;-68
2022/02/23 02:27:26;;;;;;;6.70;4.03;;;9.30;99.90;;;;;;5053721;28;20458;-76
2022/02/23 02:29:51;;;;;;;7.30;3.70;;;9.50;99.90;;;;;;5053820;28;20423;-69
2022/02/23 02:32:17;;;;;;;11.17;3.70;;;9.30;99.90;;;;;;5055048;28;20424;-68
2022/02/23 02:34:45;;;;;;;10.60;4.93;;;9.30;99.90;;;;;;5054134;28;20228;-68
2022/02/23 02:37:12;;;;;;;9.70;4.13;;;9.30;99.90;;;;;;5055458;28;20825;-68
2022/02/23 02:39:37;;;;;;;10.87;4.50;;;9.30;99.90;;;;;;5054643;28;20423;-68
2022/02/23 02:42:04;;;;;;;9.43;4.53;;;9.30;99.90;;;;;;5055236;28;20842;-68
2022/02/23 02:44:31;;;;;;;9.50;4.67;;;9.30;99.90;;;;;;5054801;28;20208;-68
2022/02/23 02:46:56;;;;;;;9.30;4.90;;;9.30;99.90;;;;;;5055348;28;20458;-68
2022/02/23 02:49:22;;;;;;;6.13;4.07;;;9.30;99.90;;;;;;5055011;28;20432;-68
2022/02/23 02:51:48;;;;;;;15.20;4.27;;;9.30;99.90;;;;;;5054568;28;20177;-68
2022/02/23 02:54:14;;;;;;;8.13;4.07;;;9.20;99.90;;;;;;5055150;28;20184;-68
2022/02/23 02:56:41;;;;;;;7.83;3.50;;;9.20;99.90;;;;;;5054283;28;20689;-68
2022/02/23 02:59:07;;;;;;;8.40;3.93;;;9.20;99.90;;;;;;5053900;28;20412;-68
2022/02/23 03:01:34;;;;;;;6.00;3.90;;;9.10;99.90;;;;;;5054240;28;20932;-68
2022/02/23 03:04:01;;;;;;;13.07;4.50;;;8.70;99.90;;;;;;5055016;28;20448;-68
2022/02/23 03:06:27;;;;;;;10.13;3.90;;;9.10;99.90;;;;;;5054375;28;20408;-77
2022/02/23 03:08:54;;;;;;;8.83;3.53;;;9.10;99.90;;;;;;5052721;28;20492;-68
2022/02/23 03:11:21;;;;;;;5.03;3.70;;;9.00;99.90;;;;;;5054854;28;20886;-68
2022/02/23 03:13:47;;;;;;;5.17;3.30;;;9.10;99.90;;;;;;5053703;28;20416;-68
2022/02/23 03:16:14;;;;;;;10.10;5.00;;;9.10;99.90;;;;;;5036241;28;20424;-68
2022/02/23 03:18:40;;;;;;;5.50;3.50;;;9.10;99.90;;;;;;5053900;28;20185;-68
2022/02/23 03:21:07;;;;;;;7.43;3.50;;;9.10;99.90;;;;;;5054173;28;20811;-68
2022/02/23 03:23:34;;;;;;;8.20;3.87;;;9.10;99.90;;;;;;5053819;28;20527;-69
2022/02/23 03:26:00;;;;;;;12.90;3.53;;;9.10;99.90;;;;;;5054306;28;20408;-68
2022/02/23 03:28:26;;;;;;;9.87;4.63;;;9.10;99.90;;;;;;5052991;28;20867;-76
2022/02/23 03:30:52;;;;;;;10.10;3.83;;;9.10;99.90;;;;;;5053766;28;20205;-68
2022/02/23 03:33:18;;;;;;;8.67;4.07;;;9.10;99.90;;;;;;5053137;28;20498;-68
2022/02/23 03:35:45;;;;;;;9.93;4.63;;;9.10;99.90;;;;;;5053967;28;20173;-68
2022/02/23 03:38:11;;;;;;;5.17;3.60;;;9.10;99.90;;;;;;5052945;28;20432;-68
2022/02/23 03:40:38;;;;;;;7.73;3.80;;;9.00;99.90;;;;;;5052357;28;20475;-68
2022/02/23 03:43:05;;;;;;;7.97;3.60;;;8.90;99.90;;;;;;5052290;28;20432;-68
2022/02/23 03:45:31;;;;;;;9.60;3.83;;;9.00;99.90;;;;;;5052854;28;20478;-70
2022/02/23 03:47:58;;;;;;;8.80;4.10;;;9.00;99.90;;;;;;5053508;28;20460;-68
2022/02/23 03:50:24;;;;;;;11.10;3.70;;;9.00;99.90;;;;;;5053028;28;20439;-68
2022/02/23 03:52:49;;;;;;;9.87;4.00;;;9.00;99.90;;;;;;5052861;28;20483;-68
2022/02/23 03:55:16;;;;;;;5.20;4.10;;;9.00;99.90;;;;;;5035717;28;20416;-68
2022/02/23 03:57:42;;;;;;;8.13;3.87;;;8.90;99.90;;;;;;5034990;28;20420;-68
2022/02/23 04:00:14;;;;;;;10.50;4.17;;;8.90;99.90;;;;;;5052401;28;20408;-69
2022/02/23 04:02:40;;;;;;;8.10;3.80;;;8.90;99.90;;;;;;5053082;28;20417;-68
2022/02/23 04:05:06;;;;;;;9.50;3.80;;;9.00;99.90;;;;;;5053321;28;20424;-68
2022/02/23 04:07:33;;;;;;;6.53;3.60;;;8.90;99.90;;;;;;5052501;28;20215;-67
2022/02/23 04:09:59;;;;;;;11.97;4.33;;;8.90;99.90;;;;;;5053794;28;20428;-66
2022/02/23 04:12:25;;;;;;;8.60;4.10;;;8.90;99.90;;;;;;5053487;28;20412;-67
2022/02/23 04:14:51;;;;;;;9.03;4.33;;;8.80;99.90;;;;;;5052357;28;20516;-66
2022/02/23 04:17:17;;;;;;;8.80;4.07;;;8.90;99.90;;;;;;5053516;28;20428;-66
2022/02/23 04:19:43;;;;;;;6.03;4.40;;;8.90;99.90;;;;;;5052005;28;20899;-66
2022/02/23 04:22:09;;;;;;;8.10;4.20;;;8.80;99.90;;;;;;5053660;28;20525;-66
2022/02/23 04:24:34;;;;;;;8.67;4.07;;;8.80;99.90;;;;;;5052650;28;20420;-66
2022/02/23 04:27:00;;;;;;;13.27;5.07;;;8.80;99.90;;;;;;5052800;28;20170;-66
2022/02/23 04:29:27;;;;;;;9.83;4.80;;;8.80;99.90;;;;;;5052319;28;20209;-66
2022/02/23 04:31:53;;;;;;;10.10;4.23;;;8.90;99.90;;;;;;5051988;28;20431;-66
2022/02/23 04:34:19;;;;;;;6.40;3.70;;;8.80;99.90;;;;;;5053322;28;20416;-66
2022/02/23 04:36:45;;;;;;;7.90;3.90;;;8.80;99.90;;;;;;5052246;28;20181;-67
2022/02/23 04:39:10;;;;;;;11.90;4.63;;;8.90;99.90;;;;;;5052951;28;20407;-66
2022/02/23 04:41:36;;;;;;;9.33;3.90;;;8.80;99.90;;;;;;5051056;28;20264;-67
2022/02/23 04:44:02;;;;;;;8.87;4.30;;;8.80;99.90;;;;;;5053058;28;20177;-66
2022/02/23 04:46:28;;;;;;;8.67;4.03;;;8.80;99.90;;;;;;5052885;28;20188;-66
2022/02/23 04:48:54;;;;;;;9.27;3.50;;;8.80;99.90;;;;;;5051981;28;20463;-66
2022/02/23 04:51:20;;;;;;;9.40;4.00;;;8.90;99.90;;;;;;5052587;28;20174;-66
2022/02/23 04:53:46;;;;;;;6.87;3.43;;;8.90;99.90;;;;;;5051756;28;20543;-66
2022/02/23 04:56:12;;;;;;;9.00;3.70;;;8.90;99.90;;;;;;5052871;28;20182;-66
2022/02/23 04:58:39;;;;;;;8.27;4.13;;;8.90;99.90;;;;;;5052299;28;20408;-67
2022/02/23 05:01:05;;;;;;;8.57;3.73;;;8.80;99.90;;;;;;5053069;28;20416;-66
2022/02/23 05:03:32;;;;;;;11.00;5.20;;;8.90;99.90;;;;;;5052281;28;20900;-75
2022/02/23 05:05:59;;;;;;;6.87;3.83;;;8.90;99.90;;;;;;5050694;28;20412;-66
2022/02/23 05:08:25;;;;;;;12.60;5.33;;;8.80;99.90;;;;;;5052658;28;20463;-66
2022/02/23 05:10:51;;;;;;;8.17;4.20;;;9.00;99.90;;;;;;5050616;28;20411;-66
2022/02/23 05:13:18;;;;;;;10.90;5.23;;;8.70;99.90;;;;;;5034672;28;20416;-66
2022/02/23 05:15:44;;;;;;;10.67;3.83;;;8.80;99.90;;;;;;5051724;28;20408;-67
2022/02/23 05:18:10;;;;;;;8.10;3.77;;;8.90;99.90;;;;;;5052509;28;20420;-67
2022/02/23 05:20:36;;;;;;;9.10;4.60;;;8.90;99.90;;;;;;5033449;28;20459;-70
2022/02/23 05:23:03;;;;;;;6.80;4.03;;;8.90;99.90;;;;;;5052150;28;20768;-66
2022/02/23 05:25:29;;;;;;;11.03;4.53;;;8.90;99.90;;;;;;5052158;28;20546;-66
2022/02/23 05:27:55;;;;;;;6.17;4.30;;;8.90;99.90;;;;;;5050174;28;20550;-66
2022/02/23 05:30:21;;;;;;;9.93;3.93;;;8.90;99.90;;;;;;5052045;28;20216;-66
2022/02/23 05:32:47;;;;;;;9.37;4.53;;;8.90;99.90;;;;;;5050513;28;20182;-66
2022/02/23 05:35:13;;;;;;;7.90;4.93;;;8.90;99.90;;;;;;5050992;28;20416;-66
2022/02/23 05:37:39;;;;;;;8.80;4.33;;;8.80;99.90;;;;;;5051452;28;20477;-67
2022/02/23 05:40:06;;;;;;;16.17;7.90;;;8.80;99.90;;;;;;5051813;28;20234;-66
2022/02/23 05:42:33;;;;;;;7.80;4.23;;;8.80;99.90;;;;;;5050411;28;20785;-71
2022/02/23 05:44:59;;;;;;;8.03;4.80;;;8.80;99.90;;;;;;5051591;28;20443;-67
2022/02/23 05:47:25;;;;;;;10.07;4.73;;;8.80;99.90;;;;;;5049726;28;20550;-66
2022/02/23 05:49:51;;;;;;;7.57;4.43;;;8.80;99.90;;;;;;5051863;28;20408;-66
2022/02/23 05:52:19;;;;;;;9.13;4.27;;;8.70;99.90;;;;;;5052198;28;20766;-66
2022/02/23 05:54:45;;;;;;;5.47;3.83;;;8.70;99.90;;;;;;5051737;28;20412;-67
2022/02/23 05:57:12;;;;;;;7.07;4.07;;;8.70;99.90;;;;;;5052412;28;20507;-66
2022/02/23 05:59:38;;;;;;;8.50;4.50;;;8.70;99.90;;;;;;5051697;28;20400;-66
2022/02/23 06:02:04;;;;;;;7.03;4.47;;;8.70;99.90;;;;;;5051712;28;20802;-66
2022/02/23 06:04:29;;;;;;;4.70;3.90;;;8.70;99.90;;;;;;5052348;28;20419;-66
2022/02/23 06:06:55;;;;;;;7.27;4.30;;;8.70;99.90;;;;;;5051665;28;20184;-66
2022/02/23 06:09:21;;;;;;;6.73;4.20;;;8.70;99.90;;;;;;5051778;28;20626;-67
2022/02/23 06:11:49;;;;;;;7.03;4.23;;;8.60;99.90;;;;;;5050710;28;20419;-66
2022/02/23 06:14:14;;;;;;;9.80;4.70;;;8.60;99.90;;;;;;5051899;28;20502;-66
2022/02/23 06:16:40;;;;;;;6.77;4.70;;;8.20;99.90;;;;;;5050768;28;20420;-67
2022/02/23 06:19:06;;;;;;;5.83;4.40;;;8.60;99.90;;;;;;5051552;28;20398;-66
2022/02/23 06:21:32;;;;;;;12.20;5.90;;;8.60;99.90;;;;;;5049636;28;20462;-66
2022/02/23 06:23:58;;;;;;;5.77;4.30;;;8.70;99.90;;;;;;5051156;28;20812;-66
2022/02/23 06:26:24;;;;;;;6.27;4.00;;;8.70;99.90;;;;;;5050559;28;20412;-66
2022/02/23 06:28:50;;;;;;;10.47;5.10;;;8.70;99.90;;;;;;5050799;28;20555;-67
2022/02/23 06:31:16;;;;;;;6.03;4.90;;;8.70;99.90;;;;;;5051285;28;20240;-66
2022/02/23 06:33:44;;;;;;;7.80;4.87;;;8.70;99.90;;;;;;5050263;28;20875;-72
2022/02/23 06:36:11;;;;;;;5.30;4.30;;;8.60;99.90;;;;;;5051571;28;20519;-67
2022/02/23 06:38:38;;;;;;;10.90;4.20;;;8.20;99.90;;;;;;5036235;28;20416;-75
2022/02/23 06:41:08;;;;;;;9.23;5.27;;;8.60;99.90;;;;;;5051110;28;20503;-66
2022/02/23 06:43:35;;;;;;;6.17;4.27;;;8.60;99.90;;;;;;5052911;28;20412;-66
2022/02/23 06:46:02;;;;;;;6.23;4.90;;;8.60;99.90;;;;;;5054185;28;20509;-67
2022/02/23 06:48:28;;;;;;;9.80;5.77;;;8.60;99.90;;;;;;5054449;28;20448;-66
2022/02/23 06:50:55;;;;;;;9.23;4.60;;;8.70;99.90;;;;;;5053442;28;20462;-68
2022/02/23 06:53:21;;;;;;;8.33;5.93;;;8.60;99.90;;;;;;5054979;28;20445;-71
2022/02/23 06:55:47;;;;;;;7.03;6.33;;;8.90;99.90;;;;;;5053064;28;20475;-71
2022/02/23 06:58:14;;;;;;;6.30;5.33;;;9.30;99.90;;;;;;5054320;28;20562;-71
2022/02/23 07:00:40;;;;;;;9.33;5.30;;;9.90;99.90;;;;;;5036245;28;20428;-71
2022/02/23 07:03:07;;;;;;;10.60;4.57;;;10.30;99.90;;;;;;5054736;28;20764;-68
2022/02/23 07:05:33;;;;;;;9.30;5.50;;;10.50;99.90;;;;;;5053658;28;20466;-69
2022/02/23 07:08:02;;;;;;;7.40;6.60;;;10.50;99.20;;;;;;5053459;28;21154;-70
2022/02/23 07:10:30;;;;;;;7.03;4.43;;;10.40;98.00;;;;;;5053880;28;20429;-70
2022/02/23 07:12:57;;;;;;;11.43;5.03;;;10.10;97.60;;;;;;5053607;28;20531;-70
2022/02/23 07:15:25;;;;;;;8.43;4.60;;;10.00;97.90;;;;;;5054926;28;20441;-68
2022/02/23 07:17:51;;;;;;;6.87;4.77;;;9.90;98.70;;;;;;5054210;28;20415;-68
2022/02/23 07:20:18;;;;;;;10.50;5.80;;;9.70;99.00;;;;;;5054706;28;20455;-68
2022/02/23 07:22:44;;;;;;;11.53;5.80;;;9.70;99.50;;;;;;5054413;28;20494;-68
2022/02/23 07:25:12;;;;;;;7.47;6.03;;;9.60;99.90;;;;;;5054964;28;20460;-68
2022/02/23 07:27:39;;;;;;;14.00;5.87;;;9.50;99.90;;;;;;5054398;28;20448;-68
2022/02/23 07:30:13;;;;;;;8.70;6.97;;;9.40;99.90;;;;;;5052534;28;20440;-68
2022/02/23 07:32:39;;;;;;;13.67;7.87;;;9.30;99.90;;;;;;5053733;28;20497;-71
2022/02/23 07:35:07;;;;;;;9.50;6.13;;;9.20;99.90;;;;;;5054574;28;20817;-68
2022/02/23 07:37:33;;;;;;;10.70;6.50;;;9.20;99.90;;;;;;5054534;28;20513;-68
2022/02/23 07:40:20;;;;;;;12.87;6.27;;;9.20;99.90;;;;;;5054005;28;20424;-68
2022/02/23 07:42:47;;;;;;;8.50;5.47;;;9.10;99.90;;;;;;5068984;28;20494;-69
2022/02/23 07:45:12;;;;;;;7.50;6.20;;;9.10;99.90;;;;;;5054402;28;20753;-68
2022/02/23 07:47:38;;;;;;;9.13;5.40;;;9.10;99.90;;;;;;5054351;28;20452;-68
2022/02/23 07:50:09;;;;;;;9.90;5.50;;;9.10;99.90;;;;;;5053881;28;20189;-68
2022/02/23 07:52:36;;;;;;;11.17;5.60;;;9.00;99.90;;;;;;5053204;28;20916;-68
2022/02/23 07:55:02;;;;;;;12.30;6.17;;;8.70;99.90;;;;;;5060806;28;20432;-68
2022/02/23 07:57:28;;;;;;;9.47;5.00;;;9.10;99.90;;;;;;5053497;28;20509;-68
2022/02/23 07:59:53;;;;;;;9.73;5.97;;;9.10;99.90;;;;;;5052954;28;20448;-69
2022/02/23 08:02:20;;;;;;;10.83;5.70;;;9.10;99.90;;;;;;5052422;28;20653;-68
2022/02/23 08:04:51;;;;;;;8.27;5.77;;;9.10;99.90;;;;;;5052667;28;20186;-68
2022/02/23 08:07:21;;;;;;;7.17;5.30;;;9.20;99.90;;;;;;5052274;28;20460;-70
2022/02/23 08:09:48;;;;;;;15.30;6.23;;;9.20;99.90;;;;;;5053577;28;20898;-70
2022/02/23 08:12:14;;;;;;;12.33;6.63;;;9.20;99.90;;;;;;5053590;28;20511;-68
2022/02/23 08:14:39;;;;;;;8.07;5.50;;;9.30;99.90;;;;;;5053789;28;20511;-68
2022/02/23 08:19:51;;;;;;;9.60;6.00;;;9.30;99.90;;;;;;5051841;28;20537;-68
2022/02/23 08:22:18;;;;;;;8.23;5.83;;;9.40;99.90;;;;;;5054019;28;20393;-68
2022/02/23 08:24:49;;;;;;;10.60;5.80;;;9.40;99.90;;;;;;5052238;28;20783;-80
2022/02/23 08:27:17;;;;;;;8.60;6.20;;;9.40;99.90;;;;;;5058250;28;20460;-69
2022/02/23 08:29:43;;;;;;;9.30;5.87;;;9.50;99.90;;;;;;5059761;28;20436;-79
2022/02/23 08:32:12;;;;;;;6.10;5.17;;;9.60;99.90;;;;;;5068908;28;20435;-68
2022/02/23 08:34:39;;;;;;;5.70;5.13;;;9.60;99.90;;;;;;5073194;28;20891;-68
2022/02/23 08:37:06;;;;;;;11.60;5.80;;;9.60;99.90;;;;;;5072453;28;21079;-68
2022/02/23 08:39:35;;;;;;;9.20;5.53;;;9.50;99.90;;;;;;5051997;28;20805;-68
2022/02/23 08:42:05;;;;;;;11.03;6.30;;;9.60;99.90;;;;;;5050723;28;20848;-68
2022/02/23 08:44:31;;;;;;;11.10;5.97;;;9.70;99.90;;;;;;5052765;28;20432;-68
2022/02/23 08:46:56;;;;;;;10.17;6.00;;;9.70;99.90;;;;;;5051860;28;20853;-69
2022/02/23 08:49:22;;;;;;;8.93;5.90;;;9.90;99.90;;;;;;5052389;28;20554;-68
2022/02/23 08:51:49;;;;;;;7.27;4.87;;;9.90;99.90;;;;;;5051510;28;20209;-69
2022/02/23 08:54:17;;;;;;;8.10;5.47;;;9.90;99.90;;;;;;5052767;28;20417;-68
2022/02/23 08:56:44;;;;;;;10.87;5.90;;;10.10;99.90;;;;;;5052183;28;20582;-68
2022/02/23 08:59:09;;;;;;;12.77;6.50;;;10.10;99.90;;;;;;5052735;28;20428;-68
2022/02/23 09:01:35;;;;;;;11.57;5.57;;;10.20;99.90;;;;;;5052907;28;20428;-68
2022/02/23 09:04:02;;;;;;;9.13;5.30;;;10.20;99.90;;;;;;5051075;28;20592;-68
2022/02/23 09:06:33;;;;;;;15.43;5.53;;;10.30;99.90;;;;;;5052937;28;20197;-68
2022/02/23 09:09:03;;;;;;;9.97;5.67;;;10.40;99.90;;;;;;5051106;28;21230;-73
2022/02/23 09:11:29;;;;;;;5.67;5.17;;;10.50;99.90;;;;;;5051932;28;20878;-69
2022/02/23 09:13:54;;;;;;;13.53;5.50;;;10.60;99.90;;;;;;5050836;28;20472;-69
2022/02/23 09:16:20;;;;;;;10.13;5.43;;;10.70;99.70;;;;;;5050951;28;20553;-69
2022/02/23 09:18:46;;;;;;;11.27;4.63;;;10.80;99.30;;;;;;5051479;28;20178;-77
2022/02/23 09:21:12;;;;;;;7.87;5.23;;;10.80;98.50;;;;;;5051876;28;20221;-69
2022/02/23 09:23:37;;;;;;;6.87;4.43;;;11.00;98.90;;;;;;5049511;28;20560;-68
2022/02/23 09:26:05;;;;;;;8.60;5.10;;;11.10;98.10;;;;;;5051733;28;20436;-69
2022/02/23 09:28:34;;;;;;;6.73;4.70;;;11.20;97.30;;;;;;5050043;28;20213;-69
2022/02/23 09:31:00;;;;;;;11.37;5.33;;;11.40;97.70;;;;;;5048547;28;20810;-68
2022/02/23 09:33:26;;;;;;;7.73;4.60;;;11.50;97.80;;;;;;5051088;28;20439;-69
2022/02/23 09:35:52;;;;;;;10.40;4.73;;;11.70;97.70;;;;;;5049857;28;20270;-69
2022/02/23 09:38:18;;;;;;;6.60;4.70;;;11.90;97.40;;;;;;5051600;28;20497;-70
2022/02/23 09:40:48;;;;;;;10.00;4.20;;;12.10;96.40;;;;;;5050803;28;20224;-70
2022/02/23 09:43:15;;;;;;;5.43;4.30;;;12.40;95.70;;;;;;5051015;28;20519;-70
2022/02/23 09:45:43;;;;;;;4.83;4.30;;;12.60;95.40;;;;;;5050324;28;20416;-69
2022/02/23 09:48:10;;;;;;;8.93;4.90;;;12.80;94.70;;;;;;5050442;28;20539;-69
2022/02/23 09:50:36;;;;;;;8.63;4.77;;;13.10;94.30;;;;;;5048279;28;20429;-69
2022/02/23 09:53:03;;;;;;;7.87;4.53;;;13.10;94.20;;;;;;5050520;28;20414;-72
2022/02/23 09:55:29;;;;;;;8.83;5.07;;;13.20;93.80;;;;;;5051571;28;20427;-68
2022/02/23 09:57:56;;;;;;;7.57;5.30;;;13.40;93.60;;;;;;5050420;28;20421;-69
2022/02/23 10:00:23;;;;;;;8.07;4.70;;;13.60;93.10;;;;;;5050054;28;20428;-68
2022/02/23 10:02:53;;;;;;;8.20;5.00;;;13.90;92.60;;;;;;5050462;28;20416;-69
2022/02/23 10:05:21;;;;;;;8.20;5.40;;;14.10;92.30;;;;;;5050708;28;20919;-69
2022/02/23 10:07:47;;;;;;;6.10;4.20;;;14.30;91.80;;;;;;5050359;28;20474;-69
2022/02/23 10:10:28;;;;;;;10.47;4.80;;;14.50;91.80;;;;;;5050954;28;20423;-71
2022/02/23 10:12:54;;;;;;;6.13;4.63;;;14.70;90.70;;;;;;5050433;28;20424;-71
2022/02/23 10:15:20;;;;;;;8.63;5.00;;;14.80;90.30;;;;;;5050998;28;20416;-69
2022/02/23 10:17:48;;;;;;;7.00;4.63;;;14.90;90.50;;;;;;5051195;28;20414;-69
2022/02/23 10:20:34;;;;;;;8.03;4.97;;;15.00;89.50;;;;;;5054441;28;20235;-71
2022/02/23 10:23:03;;;;;;;10.20;4.70;;;15.00;88.90;;;;;;5053466;28;20413;-68
2022/02/23 10:25:31;;;;;;;7.20;4.43;;;15.10;86.50;;;;;;5054592;28;20504;-68
2022/02/23 10:28:06;;;;;;;10.63;5.27;;;15.20;87.70;;;;;;5052255;28;20448;-69
2022/02/23 10:30:32;;;;;;;8.00;4.87;;;15.40;86.20;;;;;;5054318;28;20430;-69
2022/02/23 10:33:19;;;;;;;8.87;5.07;;;15.60;85.90;;;;;;5051973;28;20425;-68
2022/02/23 10:36:03;;;;;;;7.50;4.00;;;15.80;85.70;;;;;;5053782;28;20796;-68
2022/02/23 10:38:37;;;;;;;10.67;6.17;;;15.90;82.90;;;;;;5055184;28;20775;-68
2022/02/23 10:41:06;;;;;;;6.20;4.70;;;16.10;81.60;;;;;;5035306;28;20483;-68
2022/02/23 10:43:34;;;;;;;8.90;4.23;;;16.20;80.20;;;;;;5035816;28;20413;-68
2022/02/23 10:46:04;;;;;;;7.13;4.07;;;16.20;78.10;;;;;;5051810;28;20412;-68
2022/02/23 10:48:35;;;;;;;11.50;4.63;;;16.40;79.30;;;;;;5054112;28;20455;-68
2022/02/23 10:51:02;;;;;;;8.53;4.20;;;16.60;76.80;;;;;;5055044;28;20494;-68
2022/02/23 10:53:30;;;;;;;10.43;4.67;;;16.80;77.30;;;;;;5055585;28;20414;-68
2022/02/23 10:55:56;;;;;;;4.77;3.40;;;16.90;74.30;;;;;;5054904;28;20446;-68
2022/02/23 10:58:25;;;;;;;6.77;3.77;;;17.00;75.20;;;;;;5055432;28;20420;-68
2022/02/23 11:00:54;;;;;;;6.50;4.30;;;17.00;75.30;;;;;;5054252;28;20599;-68
2022/02/23 11:03:21;;;;;;;6.40;3.90;;;17.00;75.60;;;;;;5055278;28;20416;-68
2022/02/23 11:05:48;;;;;;;5.73;4.17;;;17.10;72.40;;;;;;5054986;28;20912;-68
2022/02/23 11:08:15;;;;;;;5.83;3.90;;;17.10;71.00;;;;;;5052998;28;20471;-70
2022/02/23 11:10:44;;;;;;;5.50;4.10;;;17.20;68.20;;;;;;5055212;28;20495;-69
2022/02/23 11:13:18;;;;;;;8.10;4.13;;;17.10;67.90;;;;;;5054207;28;20531;-70
2022/02/23 11:15:49;;;;;;;6.90;4.20;;;17.10;67.20;;;;;;5054441;28;20784;-69
2022/02/23 11:18:17;;;;;;;6.37;3.63;;;17.10;69.90;;;;;;5054549;28;20513;-69
2022/02/23 11:20:48;;;;;;;4.80;3.37;;;17.20;70.00;;;;;;5054278;28;20946;-71
2022/02/23 11:23:22;;;;;;;5.57;4.40;;;17.40;70.00;;;;;;5053045;28;21031;-68
2022/02/23 11:25:51;;;;;;;8.10;3.50;;;17.40;68.50;;;;;;5052278;28;20447;-68
2022/02/23 11:28:29;;;;;;;6.80;4.20;;;17.40;67.20;;;;;;5053565;28;20510;-69
2022/02/23 11:31:05;;;;;;;6.73;4.20;;;17.50;68.90;;;;;;5052074;28;20440;-68
2022/02/23 11:33:46;;;;;;;7.50;4.70;;;17.60;65.10;;;;;;5054234;28;20400;-68
2022/02/23 11:36:32;;;;;;;8.07;3.90;;;17.60;65.30;;;;;;5052842;28;20423;-68
2022/02/23 11:39:00;;;;;;;5.37;4.13;;;17.60;66.10;;;;;;5053195;28;21217;-68
2022/02/23 11:41:37;;;;;;;5.00;3.30;;;17.60;64.20;;;;;;5052689;28;20761;-68
2022/02/23 11:44:09;;;;;;;6.90;4.30;;;17.70;61.80;;;;;;5053164;28;20389;-67
2022/02/23 11:47:02;;;;;;;7.67;3.70;;;17.70;63.10;;;;;;5053145;28;20424;-68
2022/02/23 11:49:36;;;;;;;7.90;3.33;;;17.70;62.20;;;;;;5052848;28;20781;-67
2022/02/23 11:52:23;;;;;;;6.43;4.00;;;17.70;62.10;;;;;;5051118;28;20416;-68
2022/02/23 11:54:56;;;;;;;4.20;3.10;;;17.70;59.90;;;;;;5053691;28;20397;-68
2022/02/23 11:57:41;;;;;;;5.33;4.10;;;17.80;60.50;;;;;;5052480;28;20432;-69
2022/02/23 12:00:14;;;;;;;4.47;3.60;;;17.80;59.80;;;;;;5050407;28;20484;-69
2022/02/23 12:02:40;;;;;;;6.27;3.43;;;17.80;63.10;;;;;;5050754;28;20464;-68
2022/02/23 12:05:08;;;;;;;5.67;3.63;;;17.90;61.20;;;;;;5051286;28;20412;-69
2022/02/23 12:07:48;;;;;;;4.67;3.90;;;17.90;63.60;;;;;;5052872;28;20811;-68
2022/02/23 12:10:15;;;;;;;4.23;3.83;;;18.10;63.10;;;;;;5051626;28;20499;-69
2022/02/23 12:12:46;;;;;;;5.77;3.33;;;18.30;61.70;;;;;;5052236;28;20428;-73
2022/02/23 12:15:22;;;;;;;5.70;4.00;;;18.50;60.10;;;;;;5050405;28;20511;-68
2022/02/23 12:18:13;;;;;;;4.87;3.20;;;18.50;61.80;;;;;;5051087;28;20946;-69
2022/02/23 12:20:38;;;;;;;3.77;3.10;;;18.50;59.20;;;;;;5051313;28;20456;-69
2022/02/23 12:23:28;;;;;;;3.83;3.00;;;18.50;58.20;;;;;;5051807;28;20423;-70
2022/02/23 12:26:14;;;;;;;4.17;3.77;;;18.50;57.50;;;;;;5050865;28;20185;-76
2022/02/23 12:28:40;;;;;;;4.83;3.00;;;18.40;56.90;;;;;;5035762;28;20451;-69
2022/02/23 12:31:08;;;;;;;4.73;2.60;;;18.40;57.00;;;;;;5050856;28;20428;-69
2022/02/23 12:33:36;;;;;;;3.90;2.40;;;18.30;57.10;;;;;;5051465;28;20428;-68
2022/02/23 12:36:08;;;;;;;5.93;3.20;;;18.10;58.10;;;;;;5050331;28;20424;-68
2022/02/23 12:38:37;;;;;;;2.70;2.50;;;17.70;58.60;;;;;;5052008;28;20428;-68
2022/02/23 12:41:10;;;;;;;4.20;3.87;;;17.70;57.00;;;;;;5051153;28;20419;-69
2022/02/23 12:43:40;;;;;;;4.93;3.27;;;17.60;56.30;;;;;;5050555;28;20416;-68
2022/02/23 12:46:08;;;;;;;5.37;3.23;;;17.60;56.70;;;;;;5050722;28;20424;-68
2022/02/23 12:48:35;;;;;;;4.93;4.00;;;17.60;58.00;;;;;;5050104;28;20451;-68
2022/02/23 12:51:09;;;;;;;4.40;3.20;;;17.30;57.50;;;;;;5050977;28;20530;-68
2022/02/23 12:53:39;;;;;;;4.90;3.30;;;17.00;57.40;;;;;;5051733;28;20889;-69
2022/02/23 12:56:25;;;;;;;4.40;3.70;;;17.00;58.30;;;;;;5050609;28;20428;-68